sensor_id;sensor_type;location;lat;lon;timestamp;temperature;humidity
21722;DHT22;11023;48.274;7.794;2022-12-18T00:01:20;-4.90;99.90
21722;DHT22;11023;48.274;7.794;2022-12-18T00:03:46;-5.00;99.90
21722;DHT22;11023;48.274;7.794;2022-12-18T00:06:12;-5.00;99.90
21722;DHT22;11023;48.274;7.794;2022-12-18T00:08:39;-5.00;99.90
21722;DHT22;11023;48.274;7.794;2022-12-18T00:11:07;-5.00;99.90
21722;DHT22;11023;48.274;7.794;2022-12-18T00:13:34;-5.00;99.90
21722;DHT22;11023;48.274;7.794;2022-12-18T00:16:06;-5.00;99.90
21722;DHT22;11023;48.274;7.794;2022-12-18T00:18:33;-5.10;99.90
21722;DHT22;11023;48.274;7.794;2022-12-18T00:21:04;-5.10;99.90
21722;DHT22;11023;48.274;7.794;2022-12-18T00:23:32;-5.00;99.90
21722;DHT22;11023;48.274;7.794;2022-12-18T00:26:02;-5.10;99.90
21722;DHT22;11023;48.274;7.794;2022-12-18T00:28:30;-5.10;99.90
21722;DHT22;11023;48.274;7.794;2022-12-18T00:31:03;-5.00;99.90
21722;DHT22;11023;48.274;7.794;2022-12-18T00:33:30;-5.10;99.90
21722;DHT22;11023;48.274;7.794;2022-12-18T00:36:10;-5.40;99.90
21722;DHT22;11023;48.274;7.794;2022-12-18T00:38:36;-5.50;99.90
21722;DHT22;11023;48.274;7.794;2022-12-18T00:41:03;-5.50;99.90
21722;DHT22;11023;48.274;7.794;2022-12-18T00:43:30;-5.40;99.90
21722;DHT22;11023;48.274;7.794;2022-12-18T00:45:59;-5.30;99.90
21722;DHT22;11023;48.274;7.794;2022-12-18T00:48:25;-5.20;99.90
21722;DHT22;11023;48.274;7.794;2022-12-18T00:50:51;-5.20;99.90
21722;DHT22;11023;48.274;7.794;2022-12-18T00:53:18;-5.10;99.90
21722;DHT22;11023;48.274;7.794;2022-12-18T00:55:44;-5.10;99.90
21722;DHT22;11023;48.274;7.794;2022-12-18T00:58:11;-5.10;99.90
21722;DHT22;11023;48.274;7.794;2022-12-18T01:00:37;-5.10;99.90
21722;DHT22;11023;48.274;7.794;2022-12-18T01:03:04;-5.20;99.90
21722;DHT22;11023;48.274;7.794;2022-12-18T01:05:30;-5.20;99.90
21722;DHT22;11023;48.274;7.794;2022-12-18T01:07:57;-5.40;99.90
21722;DHT22;11023;48.274;7.794;2022-12-18T01:10:23;-5.50;99.90
21722;DHT22;11023;48.274;7.794;2022-12-18T01:12:49;-5.60;99.90
21722;DHT22;11023;48.274;7.794;2022-12-18T01:15:18;-5.70;99.90
21722;DHT22;11023;48.274;7.794;2022-12-18T01:17:43;-5.70;99.90
21722;DHT22;11023;48.274;7.794;2022-12-18T01:20:11;-5.70;99.90
21722;DHT22;11023;48.274;7.794;2022-12-18T01:22:37;-5.80;99.90
21722;DHT22;11023;48.274;7.794;2022-12-18T01:25:04;-5.80;99.90
21722;DHT22;11023;48.274;7.794;2022-12-18T01:27:30;-5.70;99.90
21722;DHT22;11023;48.274;7.794;2022-12-18T01:29:55;-5.70;99.90
21722;DHT22;11023;48.274;7.794;2022-12-18T01:32:21;-5.80;99.90
21722;DHT22;11023;48.274;7.794;2022-12-18T01:34:47;-5.80;99.90
21722;DHT22;11023;48.274;7.794;2022-12-18T01:37:13;-5.70;99.90
21722;DHT22;11023;48.274;7.794;2022-12-18T01:39:39;-5.70;99.90
21722;DHT22;11023;48.274;7.794;2022-12-18T01:42:13;-5.60;99.90
21722;DHT22;11023;48.274;7.794;2022-12-18T01:45:06;-5.40;99.90
21722;DHT22;11023;48.274;7.794;2022-12-18T01:47:48;-5.30;99.90
21722;DHT22;11023;48.274;7.794;2022-12-18T01:50:18;-5.30;99.90
21722;DHT22;11023;48.274;7.794;2022-12-18T01:52:53;-5.30;99.90
21722;DHT22;11023;48.274;7.794;2022-12-18T01:55:21;-5.30;99.90
21722;DHT22;11023;48.274;7.794;2022-12-18T01:57:52;-5.40;99.90
21722;DHT22;11023;48.274;7.794;2022-12-18T02:00:20;-5.40;99.90
21722;DHT22;11023;48.274;7.794;2022-12-18T02:02:47;-5.50;99.90
21722;DHT22;11023;48.274;7.794;2022-12-18T02:05:40;-5.50;99.90
21722;DHT22;11023;48.274;7.794;2022-12-18T02:08:20;-5.40;99.90
21722;DHT22;11023;48.274;7.794;2022-12-18T02:18:59;-5.30;99.90
21722;DHT22;11023;48.274;7.794;2022-12-18T02:26:48;-5.20;99.90
21722;DHT22;11023;48.274;7.794;2022-12-18T02:29:20;-5.20;99.90
21722;DHT22;11023;48.274;7.794;2022-12-18T02:31:53;-5.30;99.90
21722;DHT22;11023;48.274;7.794;2022-12-18T02:34:22;-5.30;99.90
21722;DHT22;11023;48.274;7.794;2022-12-18T02:36:50;-5.30;99.90
21722;DHT22;11023;48.274;7.794;2022-12-18T02:39:16;-5.30;99.90
21722;DHT22;11023;48.274;7.794;2022-12-18T02:41:43;-5.30;99.90
21722;DHT22;11023;48.274;7.794;2022-12-18T02:44:12;-5.30;99.90
21722;DHT22;11023;48.274;7.794;2022-12-18T02:49:22;-5.30;99.90
21722;DHT22;11023;48.274;7.794;2022-12-18T02:51:58;-5.20;99.90
21722;DHT22;11023;48.274;7.794;2022-12-18T02:57:49;-5.20;99.90
21722;DHT22;11023;48.274;7.794;2022-12-18T03:02:57;-5.10;99.90
21722;DHT22;11023;48.274;7.794;2022-12-18T03:05:35;-5.20;99.90
21722;DHT22;11023;48.274;7.794;2022-12-18T03:10:33;-5.10;99.90
21722;DHT22;11023;48.274;7.794;2022-12-18T03:13:04;-5.10;99.90
21722;DHT22;11023;48.274;7.794;2022-12-18T03:15:36;-5.00;99.90
21722;DHT22;11023;48.274;7.794;2022-12-18T03:18:06;-5.10;99.90
21722;DHT22;11023;48.274;7.794;2022-12-18T03:20:35;-5.10;99.90
21722;DHT22;11023;48.274;7.794;2022-12-18T03:23:12;-5.00;99.90
21722;DHT22;11023;48.274;7.794;2022-12-18T03:25:42;-5.10;99.90
21722;DHT22;11023;48.274;7.794;2022-12-18T03:28:13;-5.10;99.90
21722;DHT22;11023;48.274;7.794;2022-12-18T03:30:41;-5.00;99.90
21722;DHT22;11023;48.274;7.794;2022-12-18T03:33:12;-5.00;99.90
21722;DHT22;11023;48.274;7.794;2022-12-18T03:35:42;-5.00;99.90
21722;DHT22;11023;48.274;7.794;2022-12-18T03:38:10;-5.00;99.90
21722;DHT22;11023;48.274;7.794;2022-12-18T03:44:29;-5.00;99.90
21722;DHT22;11023;48.274;7.794;2022-12-18T03:52:33;-5.10;99.90
21722;DHT22;11023;48.274;7.794;2022-12-18T03:55:01;-5.10;99.90
21722;DHT22;11023;48.274;7.794;2022-12-18T03:57:31;-5.10;99.90
21722;DHT22;11023;48.274;7.794;2022-12-18T04:00:03;-5.10;99.90
21722;DHT22;11023;48.274;7.794;2022-12-18T04:02:30;-5.10;99.90
21722;DHT22;11023;48.274;7.794;2022-12-18T04:04:58;-5.10;99.90
21722;DHT22;11023;48.274;7.794;2022-12-18T04:07:25;-5.10;99.90
21722;DHT22;11023;48.274;7.794;2022-12-18T04:09:54;-5.10;99.90
21722;DHT22;11023;48.274;7.794;2022-12-18T04:12:24;-5.10;99.90
21722;DHT22;11023;48.274;7.794;2022-12-18T04:14:51;-5.10;99.90
21722;DHT22;11023;48.274;7.794;2022-12-18T04:17:18;-5.10;99.90
21722;DHT22;11023;48.274;7.794;2022-12-18T04:19:43;-5.10;99.90
21722;DHT22;11023;48.274;7.794;2022-12-18T04:22:10;-5.00;99.90
21722;DHT22;11023;48.274;7.794;2022-12-18T04:24:37;-5.00;99.90
21722;DHT22;11023;48.274;7.794;2022-12-18T04:27:03;-5.00;99.90
21722;DHT22;11023;48.274;7.794;2022-12-18T04:29:29;-5.00;99.90
21722;DHT22;11023;48.274;7.794;2022-12-18T04:31:54;-5.00;99.90
21722;DHT22;11023;48.274;7.794;2022-12-18T04:34:21;-5.00;99.90
21722;DHT22;11023;48.274;7.794;2022-12-18T04:36:47;-5.10;99.90
21722;DHT22;11023;48.274;7.794;2022-12-18T04:39:13;-5.10;99.90
21722;DHT22;11023;48.274;7.794;2022-12-18T04:41:39;-5.00;99.90
21722;DHT22;11023;48.274;7.794;2022-12-18T04:44:06;-5.10;99.90
21722;DHT22;11023;48.274;7.794;2022-12-18T04:46:32;-5.00;99.90
21722;DHT22;11023;48.274;7.794;2022-12-18T04:48:58;-5.00;99.90
21722;DHT22;11023;48.274;7.794;2022-12-18T04:51:24;-5.00;99.90
21722;DHT22;11023;48.274;7.794;2022-12-18T04:53:50;-4.90;99.90
21722;DHT22;11023;48.274;7.794;2022-12-18T04:56:16;-4.90;99.90
21722;DHT22;11023;48.274;7.794;2022-12-18T04:58:44;-4.90;99.90
21722;DHT22;11023;48.274;7.794;2022-12-18T05:01:11;-5.00;99.90
21722;DHT22;11023;48.274;7.794;2022-12-18T05:03:38;-4.90;99.90
21722;DHT22;11023;48.274;7.794;2022-12-18T05:06:06;-4.90;99.90
21722;DHT22;11023;48.274;7.794;2022-12-18T05:08:32;-5.00;99.90
21722;DHT22;11023;48.274;7.794;2022-12-18T05:11:19;-5.00;99.90
21722;DHT22;11023;48.274;7.794;2022-12-18T05:13:45;-5.00;99.90
21722;DHT22;11023;48.274;7.794;2022-12-18T05:16:12;-5.00;99.90
21722;DHT22;11023;48.274;7.794;2022-12-18T05:18:38;-5.00;99.90
21722;DHT22;11023;48.274;7.794;2022-12-18T05:21:04;-5.00;99.90
21722;DHT22;11023;48.274;7.794;2022-12-18T05:23:30;-5.00;99.90
21722;DHT22;11023;48.274;7.794;2022-12-18T05:25:58;-5.10;99.90
21722;DHT22;11023;48.274;7.794;2022-12-18T05:28:27;-5.20;99.90
21722;DHT22;11023;48.274;7.794;2022-12-18T05:30:55;-5.10;99.90
21722;DHT22;11023;48.274;7.794;2022-12-18T05:33:22;-5.10;99.90
21722;DHT22;11023;48.274;7.794;2022-12-18T05:35:55;-5.10;99.90
21722;DHT22;11023;48.274;7.794;2022-12-18T05:38:22;-5.10;99.90
21722;DHT22;11023;48.274;7.794;2022-12-18T05:40:49;-5.10;99.90
21722;DHT22;11023;48.274;7.794;2022-12-18T05:43:16;-5.10;99.90
21722;DHT22;11023;48.274;7.794;2022-12-18T05:45:43;-5.10;99.90
21722;DHT22;11023;48.274;7.794;2022-12-18T05:48:09;-5.10;99.90
21722;DHT22;11023;48.274;7.794;2022-12-18T05:50:36;-5.20;99.90
21722;DHT22;11023;48.274;7.794;2022-12-18T05:53:03;-5.10;99.90
21722;DHT22;11023;48.274;7.794;2022-12-18T05:55:32;-5.10;99.90
21722;DHT22;11023;48.274;7.794;2022-12-18T05:57:58;-5.10;99.90
21722;DHT22;11023;48.274;7.794;2022-12-18T06:00:24;-5.10;99.90
21722;DHT22;11023;48.274;7.794;2022-12-18T06:02:51;-5.10;99.90
21722;DHT22;11023;48.274;7.794;2022-12-18T06:05:17;-5.20;99.90
21722;DHT22;11023;48.274;7.794;2022-12-18T06:07:42;-5.20;99.90
21722;DHT22;11023;48.274;7.794;2022-12-18T06:10:08;-5.20;99.90
21722;DHT22;11023;48.274;7.794;2022-12-18T06:12:34;-5.20;99.90
21722;DHT22;11023;48.274;7.794;2022-12-18T06:15:00;-5.20;99.90
21722;DHT22;11023;48.274;7.794;2022-12-18T06:17:30;-5.30;99.90
21722;DHT22;11023;48.274;7.794;2022-12-18T06:19:56;-5.20;99.90
21722;DHT22;11023;48.274;7.794;2022-12-18T06:22:22;-5.20;99.90
21722;DHT22;11023;48.274;7.794;2022-12-18T06:24:47;-5.20;99.90
21722;DHT22;11023;48.274;7.794;2022-12-18T06:27:14;-5.10;99.90
21722;DHT22;11023;48.274;7.794;2022-12-18T06:29:39;-5.10;99.90
21722;DHT22;11023;48.274;7.794;2022-12-18T06:32:05;-5.20;99.90
21722;DHT22;11023;48.274;7.794;2022-12-18T06:34:33;-5.10;99.90
21722;DHT22;11023;48.274;7.794;2022-12-18T06:36:59;-5.10;99.90
21722;DHT22;11023;48.274;7.794;2022-12-18T06:39:26;-5.20;99.90
21722;DHT22;11023;48.274;7.794;2022-12-18T06:41:52;-5.10;99.90
21722;DHT22;11023;48.274;7.794;2022-12-18T06:44:18;-5.20;99.90
21722;DHT22;11023;48.274;7.794;2022-12-18T06:46:44;-5.20;99.90
21722;DHT22;11023;48.274;7.794;2022-12-18T06:49:10;-5.30;99.90
21722;DHT22;11023;48.274;7.794;2022-12-18T06:51:36;-5.20;99.90
21722;DHT22;11023;48.274;7.794;2022-12-18T06:54:02;-5.30;99.90
21722;DHT22;11023;48.274;7.794;2022-12-18T06:56:28;-5.30;99.90
21722;DHT22;11023;48.274;7.794;2022-12-18T06:58:54;-5.40;99.90
21722;DHT22;11023;48.274;7.794;2022-12-18T07:01:20;-5.40;99.90
21722;DHT22;11023;48.274;7.794;2022-12-18T07:03:46;-5.40;99.90
21722;DHT22;11023;48.274;7.794;2022-12-18T07:06:18;-5.40;99.90
21722;DHT22;11023;48.274;7.794;2022-12-18T07:08:45;-5.40;99.90
21722;DHT22;11023;48.274;7.794;2022-12-18T07:11:12;-5.40;99.90
21722;DHT22;11023;48.274;7.794;2022-12-18T07:13:38;-5.40;99.90
21722;DHT22;11023;48.274;7.794;2022-12-18T07:16:08;-5.40;99.90
21722;DHT22;11023;48.274;7.794;2022-12-18T07:18:35;-5.40;99.90
21722;DHT22;11023;48.274;7.794;2022-12-18T07:21:05;-5.30;99.90
21722;DHT22;11023;48.274;7.794;2022-12-18T07:23:33;-5.40;99.90
21722;DHT22;11023;48.274;7.794;2022-12-18T07:26:10;-5.30;99.90
21722;DHT22;11023;48.274;7.794;2022-12-18T07:28:37;-5.30;99.90
21722;DHT22;11023;48.274;7.794;2022-12-18T07:31:06;-5.40;99.90
21722;DHT22;11023;48.274;7.794;2022-12-18T07:33:33;-5.30;99.90
21722;DHT22;11023;48.274;7.794;2022-12-18T07:36:04;-5.30;99.90
21722;DHT22;11023;48.274;7.794;2022-12-18T07:38:30;-5.20;99.90
21722;DHT22;11023;48.274;7.794;2022-12-18T07:41:01;-5.30;99.90
21722;DHT22;11023;48.274;7.794;2022-12-18T07:43:27;-5.30;99.90
21722;DHT22;11023;48.274;7.794;2022-12-18T07:45:53;-5.30;99.90
21722;DHT22;11023;48.274;7.794;2022-12-18T07:48:18;-5.30;99.90
21722;DHT22;11023;48.274;7.794;2022-12-18T07:50:44;-5.30;99.90
21722;DHT22;11023;48.274;7.794;2022-12-18T07:53:10;-5.30;99.90
21722;DHT22;11023;48.274;7.794;2022-12-18T07:55:36;-5.30;99.90
21722;DHT22;11023;48.274;7.794;2022-12-18T07:58:03;-5.30;99.90
21722;DHT22;11023;48.274;7.794;2022-12-18T08:00:32;-5.20;99.90
21722;DHT22;11023;48.274;7.794;2022-12-18T08:02:57;-5.20;99.90
21722;DHT22;11023;48.274;7.794;2022-12-18T08:05:23;-5.20;99.90
21722;DHT22;11023;48.274;7.794;2022-12-18T08:07:50;-5.20;99.90
21722;DHT22;11023;48.274;7.794;2022-12-18T08:10:16;-5.30;99.90
21722;DHT22;11023;48.274;7.794;2022-12-18T08:12:42;-5.30;99.90
21722;DHT22;11023;48.274;7.794;2022-12-18T08:15:09;-5.30;99.90
21722;DHT22;11023;48.274;7.794;2022-12-18T08:17:35;-5.20;99.90
21722;DHT22;11023;48.274;7.794;2022-12-18T08:20:01;-5.20;99.90
21722;DHT22;11023;48.274;7.794;2022-12-18T08:22:27;-5.20;99.90
21722;DHT22;11023;48.274;7.794;2022-12-18T08:24:52;-5.20;99.90
21722;DHT22;11023;48.274;7.794;2022-12-18T08:27:19;-5.20;99.90
21722;DHT22;11023;48.274;7.794;2022-12-18T08:29:45;-5.20;99.90
21722;DHT22;11023;48.274;7.794;2022-12-18T08:32:12;-5.20;99.90
21722;DHT22;11023;48.274;7.794;2022-12-18T08:34:38;-5.30;99.90
21722;DHT22;11023;48.274;7.794;2022-12-18T08:37:03;-5.30;99.90
21722;DHT22;11023;48.274;7.794;2022-12-18T08:39:30;-5.20;99.90
21722;DHT22;11023;48.274;7.794;2022-12-18T08:41:56;-5.20;99.90
21722;DHT22;11023;48.274;7.794;2022-12-18T08:44:43;-5.20;99.90
21722;DHT22;11023;48.274;7.794;2022-12-18T08:47:09;-5.10;99.90
21722;DHT22;11023;48.274;7.794;2022-12-18T08:49:35;-5.10;99.90
21722;DHT22;11023;48.274;7.794;2022-12-18T08:52:01;-5.10;99.90
21722;DHT22;11023;48.274;7.794;2022-12-18T08:54:28;-5.00;99.90
21722;DHT22;11023;48.274;7.794;2022-12-18T08:56:54;-5.00;99.90
21722;DHT22;11023;48.274;7.794;2022-12-18T08:59:20;-5.10;99.90
21722;DHT22;11023;48.274;7.794;2022-12-18T09:01:46;-5.00;99.90
21722;DHT22;11023;48.274;7.794;2022-12-18T09:04:12;-4.90;99.90
21722;DHT22;11023;48.274;7.794;2022-12-18T09:06:39;-5.00;99.90
21722;DHT22;11023;48.274;7.794;2022-12-18T09:09:06;-5.00;99.90
21722;DHT22;11023;48.274;7.794;2022-12-18T09:11:32;-5.00;99.90
21722;DHT22;11023;48.274;7.794;2022-12-18T09:14:00;-5.00;99.90
21722;DHT22;11023;48.274;7.794;2022-12-18T09:16:28;-5.00;99.90
21722;DHT22;11023;48.274;7.794;2022-12-18T09:18:58;-5.10;99.90
21722;DHT22;11023;48.274;7.794;2022-12-18T09:21:35;-5.00;99.90
21722;DHT22;11023;48.274;7.794;2022-12-18T09:24:01;-4.90;99.90
21722;DHT22;11023;48.274;7.794;2022-12-18T09:26:27;-4.80;99.90
21722;DHT22;11023;48.274;7.794;2022-12-18T09:28:53;-4.70;99.90
21722;DHT22;11023;48.274;7.794;2022-12-18T09:31:22;-4.70;99.90
21722;DHT22;11023;48.274;7.794;2022-12-18T09:33:48;-4.60;99.90
21722;DHT22;11023;48.274;7.794;2022-12-18T09:36:15;-4.60;99.90
21722;DHT22;11023;48.274;7.794;2022-12-18T09:38:42;-4.50;99.90
21722;DHT22;11023;48.274;7.794;2022-12-18T09:44:09;-4.40;99.90
21722;DHT22;11023;48.274;7.794;2022-12-18T09:46:45;-4.40;99.90
21722;DHT22;11023;48.274;7.794;2022-12-18T09:49:17;-4.30;99.90
21722;DHT22;11023;48.274;7.794;2022-12-18T09:52:09;-4.30;99.90
21722;DHT22;11023;48.274;7.794;2022-12-18T09:54:40;-4.30;99.90
21722;DHT22;11023;48.274;7.794;2022-12-18T09:57:22;-4.20;99.90
21722;DHT22;11023;48.274;7.794;2022-12-18T09:59:55;-4.10;99.90
21722;DHT22;11023;48.274;7.794;2022-12-18T10:02:26;-4.00;99.90
21722;DHT22;11023;48.274;7.794;2022-12-18T10:08:26;-4.00;99.90
21722;DHT22;11023;48.274;7.794;2022-12-18T10:11:03;-3.90;99.90
21722;DHT22;11023;48.274;7.794;2022-12-18T10:16:24;-3.80;99.90
21722;DHT22;11023;48.274;7.794;2022-12-18T10:22:17;-3.70;99.90
21722;DHT22;11023;48.274;7.794;2022-12-18T10:27:31;-3.60;99.90
21722;DHT22;11023;48.274;7.794;2022-12-18T10:29:57;-3.60;99.90
21722;DHT22;11023;48.274;7.794;2022-12-18T10:32:27;-3.60;99.90
21722;DHT22;11023;48.274;7.794;2022-12-18T10:34:56;-3.70;99.90
21722;DHT22;11023;48.274;7.794;2022-12-18T10:37:24;-3.70;99.90
21722;DHT22;11023;48.274;7.794;2022-12-18T10:40:12;-3.70;99.90
21722;DHT22;11023;48.274;7.794;2022-12-18T10:42:39;-3.80;99.90
21722;DHT22;11023;48.274;7.794;2022-12-18T10:45:15;-3.80;99.90
21722;DHT22;11023;48.274;7.794;2022-12-18T10:47:48;-3.80;99.90
21722;DHT22;11023;48.274;7.794;2022-12-18T10:50:32;-3.80;99.90
21722;DHT22;11023;48.274;7.794;2022-12-18T10:53:00;-3.70;99.90
21722;DHT22;11023;48.274;7.794;2022-12-18T10:55:31;-3.80;99.90
21722;DHT22;11023;48.274;7.794;2022-12-18T10:58:23;-3.80;99.90
21722;DHT22;11023;48.274;7.794;2022-12-18T11:01:15;-3.70;99.90
21722;DHT22;11023;48.274;7.794;2022-12-18T11:03:46;-3.80;99.90
21722;DHT22;11023;48.274;7.794;2022-12-18T11:06:18;-3.90;99.90
21722;DHT22;11023;48.274;7.794;2022-12-18T11:09:05;-3.80;99.90
21722;DHT22;11023;48.274;7.794;2022-12-18T11:11:32;-3.80;99.90
21722;DHT22;11023;48.274;7.794;2022-12-18T11:16:34;-4.00;99.90
21722;DHT22;11023;48.274;7.794;2022-12-18T11:21:46;-4.20;99.90
21722;DHT22;11023;48.274;7.794;2022-12-18T11:24:31;-4.20;99.90
21722;DHT22;11023;48.274;7.794;2022-12-18T11:27:00;-4.20;99.90
21722;DHT22;11023;48.274;7.794;2022-12-18T11:29:36;-4.20;99.90
21722;DHT22;11023;48.274;7.794;2022-12-18T11:32:37;-4.10;99.90
21722;DHT22;11023;48.274;7.794;2022-12-18T11:35:16;-4.40;99.90
21722;DHT22;11023;48.274;7.794;2022-12-18T11:37:47;-4.60;99.90
21722;DHT22;11023;48.274;7.794;2022-12-18T11:40:19;-4.60;99.90
21722;DHT22;11023;48.274;7.794;2022-12-18T11:42:50;-4.60;99.90
21722;DHT22;11023;48.274;7.794;2022-12-18T11:45:27;-4.60;99.90
21722;DHT22;11023;48.274;7.794;2022-12-18T11:50:56;-4.80;99.90
21722;DHT22;11023;48.274;7.794;2022-12-18T11:53:25;-4.80;99.90
21722;DHT22;11023;48.274;7.794;2022-12-18T11:56:11;-4.90;99.90
21722;DHT22;11023;48.274;7.794;2022-12-18T12:09:15;-4.40;99.90
21722;DHT22;11023;48.274;7.794;2022-12-18T12:11:56;-4.30;99.90
21722;DHT22;11023;48.274;7.794;2022-12-18T12:18:36;-4.20;99.90
21722;DHT22;11023;48.274;7.794;2022-12-18T12:39:54;-4.00;99.90
21722;DHT22;11023;48.274;7.794;2022-12-18T12:42:44;-3.90;99.90
21722;DHT22;11023;48.274;7.794;2022-12-18T12:45:44;-3.90;99.90
21722;DHT22;11023;48.274;7.794;2022-12-18T12:48:44;-3.80;99.90
21722;DHT22;11023;48.274;7.794;2022-12-18T12:51:28;-3.70;99.90
21722;DHT22;11023;48.274;7.794;2022-12-18T12:53:56;-3.70;99.90
21722;DHT22;11023;48.274;7.794;2022-12-18T12:56:27;-3.70;99.90
21722;DHT22;11023;48.274;7.794;2022-12-18T12:59:05;-3.70;99.90
21722;DHT22;11023;48.274;7.794;2022-12-18T13:04:55;-3.70;99.90
21722;DHT22;11023;48.274;7.794;2022-12-18T13:07:41;-4.00;99.90
21722;DHT22;11023;48.274;7.794;2022-12-18T13:15:41;-4.30;99.90
21722;DHT22;11023;48.274;7.794;2022-12-18T13:20:37;-4.40;99.90
21722;DHT22;11023;48.274;7.794;2022-12-18T13:25:48;-4.20;99.90
21722;DHT22;11023;48.274;7.794;2022-12-18T13:30:56;-4.20;99.90
21722;DHT22;11023;48.274;7.794;2022-12-18T13:38:37;-4.10;99.90
21722;DHT22;11023;48.274;7.794;2022-12-18T13:43:49;-3.90;99.90
21722;DHT22;11023;48.274;7.794;2022-12-18T13:48:52;-3.90;99.90
21722;DHT22;11023;48.274;7.794;2022-12-18T13:51:20;-3.90;99.90
21722;DHT22;11023;48.274;7.794;2022-12-18T13:53:50;-4.00;99.90
21722;DHT22;11023;48.274;7.794;2022-12-18T13:56:17;-3.90;99.90
21722;DHT22;11023;48.274;7.794;2022-12-18T13:58:43;-3.80;99.90
21722;DHT22;11023;48.274;7.794;2022-12-18T14:01:22;-3.80;99.90
21722;DHT22;11023;48.274;7.794;2022-12-18T14:03:48;-3.80;99.90
21722;DHT22;11023;48.274;7.794;2022-12-18T14:06:17;-3.80;99.90
21722;DHT22;11023;48.274;7.794;2022-12-18T14:08:43;-3.80;99.90
21722;DHT22;11023;48.274;7.794;2022-12-18T14:11:22;-3.60;99.90
21722;DHT22;11023;48.274;7.794;2022-12-18T14:13:48;-3.60;99.90
21722;DHT22;11023;48.274;7.794;2022-12-18T14:16:16;-3.60;99.90
21722;DHT22;11023;48.274;7.794;2022-12-18T14:19:16;-3.50;99.90
21722;DHT22;11023;48.274;7.794;2022-12-18T14:21:34;-3.50;99.90
21722;DHT22;11023;48.274;7.794;2022-12-18T14:24:21;-3.60;99.90
21722;DHT22;11023;48.274;7.794;2022-12-18T14:26:48;-3.60;99.90
21722;DHT22;11023;48.274;7.794;2022-12-18T14:29:26;-3.70;99.90
21722;DHT22;11023;48.274;7.794;2022-12-18T14:32:12;-3.60;99.90
21722;DHT22;11023;48.274;7.794;2022-12-18T14:34:39;-3.70;99.90
21722;DHT22;11023;48.274;7.794;2022-12-18T14:37:07;-3.70;99.90
21722;DHT22;11023;48.274;7.794;2022-12-18T14:39:34;-3.70;99.90
21722;DHT22;11023;48.274;7.794;2022-12-18T14:42:00;-3.70;99.90
21722;DHT22;11023;48.274;7.794;2022-12-18T14:44:25;-3.70;99.90
21722;DHT22;11023;48.274;7.794;2022-12-18T14:46:51;-3.80;99.90
21722;DHT22;11023;48.274;7.794;2022-12-18T14:49:18;-3.80;99.90
21722;DHT22;11023;48.274;7.794;2022-12-18T14:51:50;-3.90;99.90
21722;DHT22;11023;48.274;7.794;2022-12-18T14:54:19;-3.90;99.90
21722;DHT22;11023;48.274;7.794;2022-12-18T14:56:48;-3.90;99.90
21722;DHT22;11023;48.274;7.794;2022-12-18T14:59:21;-4.00;99.90
21722;DHT22;11023;48.274;7.794;2022-12-18T15:04:34;-4.00;99.90
21722;DHT22;11023;48.274;7.794;2022-12-18T15:09:38;-4.10;99.90
21722;DHT22;11023;48.274;7.794;2022-12-18T15:12:04;-4.20;99.90
21722;DHT22;11023;48.274;7.794;2022-12-18T15:14:41;-4.10;99.90
21722;DHT22;11023;48.274;7.794;2022-12-18T15:17:20;-4.10;99.90
21722;DHT22;11023;48.274;7.794;2022-12-18T15:19:47;-4.20;99.90
21722;DHT22;11023;48.274;7.794;2022-12-18T15:22:34;-4.20;99.90
21722;DHT22;11023;48.274;7.794;2022-12-18T15:25:01;-4.30;99.90
21722;DHT22;11023;48.274;7.794;2022-12-18T15:27:30;-4.40;99.90
21722;DHT22;11023;48.274;7.794;2022-12-18T15:30:21;-4.40;99.90
21722;DHT22;11023;48.274;7.794;2022-12-18T15:32:47;-4.40;99.90
21722;DHT22;11023;48.274;7.794;2022-12-18T15:35:21;-4.30;99.90
21722;DHT22;11023;48.274;7.794;2022-12-18T15:37:47;-4.30;99.90
21722;DHT22;11023;48.274;7.794;2022-12-18T15:40:19;-4.40;99.90
21722;DHT22;11023;48.274;7.794;2022-12-18T15:42:46;-4.40;99.90
21722;DHT22;11023;48.274;7.794;2022-12-18T15:45:31;-4.40;99.90
21722;DHT22;11023;48.274;7.794;2022-12-18T15:47:57;-4.30;99.90
21722;DHT22;11023;48.274;7.794;2022-12-18T15:50:23;-4.30;99.90
21722;DHT22;11023;48.274;7.794;2022-12-18T15:52:52;-4.30;99.90
21722;DHT22;11023;48.274;7.794;2022-12-18T15:55:23;-4.30;99.90
21722;DHT22;11023;48.274;7.794;2022-12-18T15:58:09;-4.30;99.90
21722;DHT22;11023;48.274;7.794;2022-12-18T16:00:37;-4.40;99.90
21722;DHT22;11023;48.274;7.794;2022-12-18T16:03:04;-4.40;99.90
21722;DHT22;11023;48.274;7.794;2022-12-18T16:05:30;-4.40;99.90
21722;DHT22;11023;48.274;7.794;2022-12-18T16:07:57;-4.40;99.90
21722;DHT22;11023;48.274;7.794;2022-12-18T16:10:24;-4.40;99.90
21722;DHT22;11023;48.274;7.794;2022-12-18T16:12:50;-4.30;99.90
21722;DHT22;11023;48.274;7.794;2022-12-18T16:15:16;-4.30;99.90
21722;DHT22;11023;48.274;7.794;2022-12-18T16:17:43;-4.20;99.90
21722;DHT22;11023;48.274;7.794;2022-12-18T16:20:13;-4.20;99.90
21722;DHT22;11023;48.274;7.794;2022-12-18T16:22:41;-4.20;99.90
21722;DHT22;11023;48.274;7.794;2022-12-18T16:25:20;-4.20;99.90
21722;DHT22;11023;48.274;7.794;2022-12-18T16:27:46;-4.20;99.90
21722;DHT22;11023;48.274;7.794;2022-12-18T16:30:14;-4.30;99.90
21722;DHT22;11023;48.274;7.794;2022-12-18T16:32:40;-4.20;99.90
21722;DHT22;11023;48.274;7.794;2022-12-18T16:35:07;-4.20;99.90
21722;DHT22;11023;48.274;7.794;2022-12-18T16:37:33;-4.20;99.90
21722;DHT22;11023;48.274;7.794;2022-12-18T16:39:59;-4.20;99.90
21722;DHT22;11023;48.274;7.794;2022-12-18T16:42:25;-4.20;99.90
21722;DHT22;11023;48.274;7.794;2022-12-18T16:44:50;-4.10;99.90
21722;DHT22;11023;48.274;7.794;2022-12-18T16:47:16;-4.10;99.90
21722;DHT22;11023;48.274;7.794;2022-12-18T16:49:43;-4.10;99.90
21722;DHT22;11023;48.274;7.794;2022-12-18T16:52:10;-4.00;99.90
21722;DHT22;11023;48.274;7.794;2022-12-18T16:54:35;-4.10;99.90
21722;DHT22;11023;48.274;7.794;2022-12-18T16:57:02;-4.10;99.90
21722;DHT22;11023;48.274;7.794;2022-12-18T16:59:28;-4.10;99.90
21722;DHT22;11023;48.274;7.794;2022-12-18T17:01:54;-4.10;99.90
21722;DHT22;11023;48.274;7.794;2022-12-18T17:04:20;-4.10;99.90
21722;DHT22;11023;48.274;7.794;2022-12-18T17:06:46;-4.10;99.90
21722;DHT22;11023;48.274;7.794;2022-12-18T17:09:17;-4.10;99.90
21722;DHT22;11023;48.274;7.794;2022-12-18T17:11:47;-4.00;99.90
21722;DHT22;11023;48.274;7.794;2022-12-18T17:14:16;-3.90;99.90
21722;DHT22;11023;48.274;7.794;2022-12-18T17:16:42;-3.80;99.90
21722;DHT22;11023;48.274;7.794;2022-12-18T17:19:08;-3.80;99.90
21722;DHT22;11023;48.274;7.794;2022-12-18T17:21:34;-3.80;99.90
21722;DHT22;11023;48.274;7.794;2022-12-18T17:24:00;-3.70;99.90
21722;DHT22;11023;48.274;7.794;2022-12-18T17:26:26;-3.70;99.90
21722;DHT22;11023;48.274;7.794;2022-12-18T17:28:52;-3.70;99.90
21722;DHT22;11023;48.274;7.794;2022-12-18T17:31:21;-3.70;99.90
21722;DHT22;11023;48.274;7.794;2022-12-18T17:33:48;-3.80;99.90
21722;DHT22;11023;48.274;7.794;2022-12-18T17:36:14;-3.80;99.90
21722;DHT22;11023;48.274;7.794;2022-12-18T17:38:40;-3.90;99.90
21722;DHT22;11023;48.274;7.794;2022-12-18T17:41:09;-3.90;99.90
21722;DHT22;11023;48.274;7.794;2022-12-18T17:43:35;-3.90;99.90
21722;DHT22;11023;48.274;7.794;2022-12-18T17:46:05;-3.90;99.90
21722;DHT22;11023;48.274;7.794;2022-12-18T17:48:31;-3.80;99.90